Time;durP1;ratioP1;P1;durP2;ratioP2;P2;SDS_P1;SDS_P2;PMS_P1;PMS_P2;Temp;Humidity;BMP_temperature;BMP_pressure;BME280_temperature;BME280_humidity;BME280_pressure;Samples;Min_cycle;Max_cycle;Signal;HPM_P1;HPM_P2
2021/03/27 00:01:30;;;;;;;65.23;35.83;;;3.60;95.30;;;;;;4985874;28;20514;-84
2021/03/27 00:04:05;;;;;;;65.03;35.17;;;3.80;93.20;;;;;;4980415;28;20232;-84
2021/03/27 00:06:40;;;;;;;64.80;34.77;;;3.90;92.10;;;;;;4976407;28;20699;-83
2021/03/27 00:09:20;;;;;;;59.60;34.17;;;4.00;91.50;;;;;;4983528;28;20206;-82
2021/03/27 00:11:57;;;;;;;59.03;33.40;;;4.10;91.40;;;;;;4996408;28;20201;-84
2021/03/27 00:14:38;;;;;;;62.70;35.13;;;4.20;90.90;;;;;;4991741;28;20202;-84
2021/03/27 00:17:32;;;;;;;58.83;32.20;;;4.40;90.20;;;;;;4992121;28;20212;-83
2021/03/27 00:20:11;;;;;;;62.97;32.87;;;4.50;89.30;;;;;;4996728;28;20203;-83
2021/03/27 00:22:45;;;;;;;60.90;31.30;;;4.60;88.60;;;;;;4996692;28;20220;-83
2021/03/27 00:25:18;;;;;;;57.97;31.80;;;4.70;88.10;;;;;;4998155;28;20179;-83
2021/03/27 00:27:54;;;;;;;60.13;32.43;;;4.70;87.90;;;;;;4998574;28;20183;-83
2021/03/27 00:30:29;;;;;;;62.53;33.47;;;4.80;87.60;;;;;;5001613;28;20191;-85
2021/03/27 00:32:59;;;;;;;57.57;31.43;;;4.80;87.40;;;;;;4997422;28;20192;-84
2021/03/27 00:35:32;;;;;;;53.93;31.30;;;4.80;87.30;;;;;;4998609;28;20240;-83
2021/03/27 00:38:03;;;;;;;56.43;32.13;;;4.80;87.50;;;;;;4993370;28;20218;-82
2021/03/27 00:40:34;;;;;;;58.23;32.27;;;4.80;87.70;;;;;;4997918;28;20214;-83
2021/03/27 00:43:05;;;;;;;59.63;31.40;;;4.80;87.50;;;;;;4990323;28;20291;-84
2021/03/27 00:45:43;;;;;;;53.83;30.47;;;4.80;87.70;;;;;;4997112;28;20192;-82
2021/03/27 00:48:15;;;;;;;54.53;31.17;;;4.80;87.70;;;;;;5004132;28;20194;-82
2021/03/27 00:50:49;;;;;;;52.57;30.70;;;4.90;87.50;;;;;;4991267;28;20211;-84
2021/03/27 00:53:32;;;;;;;55.40;30.63;;;5.00;87.20;;;;;;4997855;28;20241;-84
2021/03/27 00:56:04;;;;;;;55.63;30.93;;;5.00;87.00;;;;;;4995458;28;20204;-84
2021/03/27 00:58:39;;;;;;;53.43;30.50;;;5.10;86.90;;;;;;4996465;28;20205;-81
2021/03/27 01:01:10;;;;;;;52.87;30.80;;;5.10;86.90;;;;;;4991672;28;20196;-83
2021/03/27 01:03:41;;;;;;;54.60;31.03;;;5.20;86.70;;;;;;4993878;28;20255;-83
2021/03/27 01:06:11;;;;;;;55.70;29.67;;;5.30;86.60;;;;;;4975783;28;20294;-83
2021/03/27 01:08:40;;;;;;;51.87;30.10;;;5.30;86.30;;;;;;4984818;28;20191;-82
2021/03/27 01:11:15;;;;;;;51.17;28.60;;;5.30;86.10;;;;;;4999339;28;20190;-85
2021/03/27 01:13:46;;;;;;;53.73;30.80;;;5.60;86.20;;;;;;4989847;28;20200;-84
2021/03/27 01:16:18;;;;;;;57.47;29.93;;;5.50;86.00;;;;;;4991987;28;20235;-83
2021/03/27 01:18:51;;;;;;;50.00;29.17;;;5.50;85.90;;;;;;4965459;28;20228;-83
2021/03/27 01:21:25;;;;;;;49.23;29.00;;;5.60;85.70;;;;;;4986818;28;20259;-83
2021/03/27 01:23:56;;;;;;;54.93;29.67;;;5.70;85.60;;;;;;4994645;28;20517;-83
2021/03/27 01:26:28;;;;;;;46.30;28.43;;;5.70;85.50;;;;;;4993462;28;20196;-84
2021/03/27 01:29:01;;;;;;;51.57;28.50;;;5.80;85.60;;;;;;4998196;28;20193;-83
2021/03/27 01:31:39;;;;;;;51.97;30.03;;;5.80;85.40;;;;;;5002530;28;20188;-83
2021/03/27 01:34:15;;;;;;;51.23;30.07;;;5.80;85.40;;;;;;4997324;28;20257;-84
2021/03/27 01:36:48;;;;;;;53.53;29.27;;;5.80;85.10;;;;;;4997276;28;20200;-83
2021/03/27 01:39:19;;;;;;;50.77;28.57;;;5.80;85.10;;;;;;4996954;28;20231;-83
2021/03/27 01:42:05;;;;;;;49.27;28.57;;;5.90;85.20;;;;;;4994321;28;20230;-83
2021/03/27 01:44:50;;;;;;;47.57;27.23;;;5.90;85.20;;;;;;4998885;28;20210;-84
2021/03/27 01:47:28;;;;;;;52.00;29.60;;;5.90;85.40;;;;;;5003719;28;20260;-83
2021/03/27 01:50:19;;;;;;;52.17;30.20;;;5.90;85.80;;;;;;5004951;28;20259;-82
2021/03/27 01:52:55;;;;;;;54.67;29.83;;;5.90;85.70;;;;;;5003043;28;20215;-82
2021/03/27 01:55:39;;;;;;;48.23;29.57;;;5.90;85.70;;;;;;5000249;28;20195;-83
2021/03/27 01:58:13;;;;;;;55.00;30.70;;;5.90;86.00;;;;;;5005097;28;20283;-83
2021/03/27 02:00:48;;;;;;;46.77;28.70;;;5.90;86.20;;;;;;5003224;28;20196;-84
2021/03/27 02:03:22;;;;;;;55.70;30.30;;;5.80;86.50;;;;;;4993827;28;20248;-82
2021/03/27 02:05:55;;;;;;;52.27;30.30;;;5.80;86.80;;;;;;4995940;28;20215;-83
2021/03/27 02:08:36;;;;;;;51.73;28.83;;;5.80;87.00;;;;;;4986454;28;20197;-83
2021/03/27 02:11:10;;;;;;;53.33;30.10;;;5.80;87.10;;;;;;4978268;28;20406;-84
2021/03/27 02:13:45;;;;;;;52.13;29.77;;;5.80;87.20;;;;;;4976030;28;20201;-83
2021/03/27 02:16:21;;;;;;;59.03;31.73;;;5.80;87.70;;;;;;4983414;28;20267;-83
2021/03/27 02:19:15;;;;;;;52.30;30.93;;;5.80;88.40;;;;;;4998986;28;20220;-82
2021/03/27 02:21:51;;;;;;;55.27;30.27;;;5.70;88.90;;;;;;4987132;28;20207;-83
2021/03/27 02:24:58;;;;;;;53.60;30.83;;;5.60;89.90;;;;;;4998999;28;20287;-82
2021/03/27 02:27:34;;;;;;;55.27;30.77;;;5.70;90.30;;;;;;4992038;28;20218;-84
2021/03/27 02:30:18;;;;;;;55.13;29.40;;;5.40;90.50;;;;;;4997108;28;21194;-83
2021/03/27 02:33:08;;;;;;;53.67;31.80;;;5.40;90.70;;;;;;4987367;28;20264;-84
2021/03/27 02:35:51;;;;;;;61.40;32.83;;;5.40;90.60;;;;;;4978035;28;20694;-83
2021/03/27 02:38:30;;;;;;;61.13;33.17;;;5.30;90.60;;;;;;4987809;28;20227;-83
2021/03/27 02:41:13;;;;;;;60.00;31.90;;;5.30;90.50;;;;;;4985166;28;20631;-83
2021/03/27 02:43:45;;;;;;;62.60;32.67;;;5.30;90.30;;;;;;5003567;28;20259;-84
2021/03/27 02:46:27;;;;;;;66.63;33.30;;;5.30;90.00;;;;;;4995939;28;20422;-83
2021/03/27 02:49:08;;;;;;;55.50;31.93;;;5.40;89.60;;;;;;4994292;28;20387;-83
2021/03/27 02:51:43;;;;;;;60.07;33.37;;;5.30;89.30;;;;;;4994001;28;20304;-82
2021/03/27 02:54:18;;;;;;;61.67;32.47;;;5.40;89.30;;;;;;4991310;28;20208;-84
2021/03/27 02:56:53;;;;;;;60.77;32.57;;;5.40;89.40;;;;;;4989974;28;20211;-83
2021/03/27 02:59:40;;;;;;;57.40;31.53;;;5.30;89.30;;;;;;4987206;28;20219;-83
2021/03/27 03:02:20;;;;;;;56.87;30.47;;;5.20;89.30;;;;;;4981581;28;20504;-82
2021/03/27 03:04:58;;;;;;;62.53;33.57;;;5.10;89.80;;;;;;4974753;28;20210;-84
2021/03/27 03:07:32;;;;;;;59.20;31.37;;;5.00;89.70;;;;;;4973421;28;20208;-83
2021/03/27 03:10:15;;;;;;;61.83;33.13;;;5.10;90.00;;;;;;4978322;28;20212;-83
2021/03/27 03:12:55;;;;;;;70.67;33.73;;;5.00;90.10;;;;;;4981829;28;20286;-82
2021/03/27 03:15:27;;;;;;;58.30;32.13;;;5.00;90.00;;;;;;4995703;28;20203;-82
2021/03/27 03:18:02;;;;;;;64.57;33.47;;;5.00;90.00;;;;;;4998221;28;20301;-82
2021/03/27 03:20:40;;;;;;;64.20;34.00;;;4.90;90.10;;;;;;5000682;28;20216;-84
2021/03/27 03:23:15;;;;;;;64.00;34.00;;;4.90;90.20;;;;;;4982962;28;20203;-83
2021/03/27 03:25:50;;;;;;;61.77;33.13;;;4.80;90.30;;;;;;4973091;28;20223;-82
2021/03/27 03:28:27;;;;;;;64.20;35.20;;;4.80;90.30;;;;;;4968139;28;20301;-84
2021/03/27 03:31:23;;;;;;;63.97;33.60;;;4.70;90.30;;;;;;4973881;28;20260;-83
2021/03/27 03:34:18;;;;;;;65.33;34.40;;;4.80;90.30;;;;;;4970625;28;20224;-83
2021/03/27 03:36:56;;;;;;;68.77;35.73;;;4.80;90.40;;;;;;4973418;28;20530;-83
2021/03/27 03:39:57;;;;;;;66.67;35.00;;;4.80;90.40;;;;;;4973060;28;20565;-83
2021/03/27 03:42:50;;;;;;;62.80;34.07;;;4.70;90.40;;;;;;4976586;28;20209;-82
2021/03/27 03:45:34;;;;;;;71.43;36.33;;;4.70;90.50;;;;;;4975820;28;20272;-80
2021/03/27 03:48:13;;;;;;;66.93;35.90;;;4.60;90.60;;;;;;4981126;28;20223;-82
2021/03/27 03:50:51;;;;;;;71.80;36.10;;;4.60;90.60;;;;;;4984936;28;20201;-83
2021/03/27 03:53:37;;;;;;;66.70;35.60;;;4.60;90.70;;;;;;4979734;28;20208;-85
2021/03/27 03:56:15;;;;;;;72.70;37.70;;;4.60;90.70;;;;;;4980718;28;20227;-83
2021/03/27 03:58:58;;;;;;;75.07;37.67;;;4.60;90.80;;;;;;4993559;28;20261;-83
2021/03/27 04:01:39;;;;;;;67.23;36.10;;;4.60;90.80;;;;;;4972434;28;20749;-84
2021/03/27 04:04:12;;;;;;;69.87;37.73;;;4.60;90.80;;;;;;4969588;28;20462;-82
2021/03/27 04:06:41;;;;;;;70.43;37.50;;;4.60;90.70;;;;;;4977331;28;20210;-83
2021/03/27 04:09:17;;;;;;;74.00;37.77;;;4.70;90.70;;;;;;4975448;28;20203;-83
2021/03/27 04:11:53;;;;;;;72.13;37.93;;;4.60;90.80;;;;;;4980953;28;20211;-83
2021/03/27 04:14:46;;;;;;;73.70;38.30;;;4.60;90.80;;;;;;4978992;28;20218;-82
2021/03/27 04:17:23;;;;;;;73.07;38.33;;;4.60;90.80;;;;;;4976685;28;20211;-81
2021/03/27 04:20:00;;;;;;;79.67;39.07;;;4.60;90.80;;;;;;4987377;28;20229;-82
2021/03/27 04:22:35;;;;;;;77.33;40.03;;;4.70;90.70;;;;;;4987256;28;20205;-86
2021/03/27 04:25:25;;;;;;;74.07;38.03;;;4.60;90.70;;;;;;4984240;28;20663;-84
2021/03/27 04:27:59;;;;;;;77.80;39.73;;;4.60;90.70;;;;;;4990852;28;20198;-82
2021/03/27 04:30:35;;;;;;;73.37;38.67;;;4.60;90.60;;;;;;4972211;28;20375;-84
2021/03/27 04:33:11;;;;;;;82.50;41.03;;;4.60;90.60;;;;;;5001953;28;20196;-82
2021/03/27 04:35:54;;;;;;;78.87;38.93;;;4.50;90.90;;;;;;4984366;28;20206;-83
2021/03/27 04:38:31;;;;;;;74.97;39.40;;;4.40;90.80;;;;;;4992339;28;20218;-81
2021/03/27 04:41:11;;;;;;;81.43;40.87;;;4.30;91.00;;;;;;4998045;28;20216;-83
2021/03/27 04:43:45;;;;;;;77.27;40.97;;;4.30;91.70;;;;;;4990398;28;20233;-81
2021/03/27 04:46:22;;;;;;;84.27;41.77;;;4.40;92.10;;;;;;4992013;28;20414;-82
2021/03/27 04:48:55;;;;;;;79.87;41.23;;;4.40;91.90;;;;;;4981778;28;20239;-82
2021/03/27 04:51:43;;;;;;;81.77;42.40;;;4.40;92.00;;;;;;4975988;28;20204;-84
2021/03/27 04:54:25;;;;;;;81.43;42.60;;;4.50;91.80;;;;;;4969878;28;20372;-84
2021/03/27 04:57:08;;;;;;;81.57;43.30;;;4.60;91.70;;;;;;4972306;28;20231;-82
2021/03/27 04:59:52;;;;;;;87.10;44.77;;;4.70;91.20;;;;;;4969711;28;20227;-82
2021/03/27 05:02:27;;;;;;;84.90;44.27;;;4.90;91.00;;;;;;4971231;28;20287;-83
2021/03/27 05:05:01;;;;;;;81.43;42.47;;;4.90;90.80;;;;;;4974357;28;20247;-83
2021/03/27 05:07:38;;;;;;;87.93;44.27;;;4.90;90.60;;;;;;4978658;28;20288;-82
2021/03/27 05:10:12;;;;;;;81.93;44.43;;;5.00;90.50;;;;;;4980938;28;20212;-82
2021/03/27 05:12:56;;;;;;;86.57;43.43;;;5.10;90.20;;;;;;4968301;28;20560;-83
2021/03/27 05:15:34;;;;;;;84.97;44.03;;;5.20;90.10;;;;;;4973718;28;20473;-81
2021/03/27 05:18:38;;;;;;;85.63;45.47;;;5.40;89.80;;;;;;4964851;28;20231;-83
2021/03/27 05:21:30;;;;;;;79.60;43.40;;;5.50;89.40;;;;;;4968692;28;21061;-83
2021/03/27 05:24:09;;;;;;;82.77;44.63;;;5.60;88.90;;;;;;4966251;28;20219;-82
2021/03/27 05:26:50;;;;;;;82.73;44.10;;;5.70;88.70;;;;;;4969840;28;20215;-81
2021/03/27 05:29:47;;;;;;;85.20;45.37;;;6.00;88.50;;;;;;4975309;28;20569;-84
2021/03/27 05:32:49;;;;;;;88.57;42.13;;;6.10;88.20;;;;;;4960570;28;20209;-83
2021/03/27 05:35:29;;;;;;;74.60;42.50;;;6.20;87.60;;;;;;4870132;29;20259;-83
2021/03/27 05:38:17;;;;;;;83.73;43.93;;;6.30;87.40;;;;;;4962971;28;20237;-83
2021/03/27 05:41:23;;;;;;;83.90;45.23;;;6.40;87.30;;;;;;4971682;28;20250;-83
2021/03/27 05:44:21;;;;;;;88.33;46.47;;;6.40;87.20;;;;;;4967482;28;20296;-82
2021/03/27 05:47:26;;;;;;;87.63;44.97;;;6.40;86.90;;;;;;4947752;28;20214;-84
2021/03/27 05:50:38;;;;;;;86.00;45.33;;;6.40;86.90;;;;;;4970173;28;20261;-83
2021/03/27 05:53:35;;;;;;;86.70;45.00;;;6.40;87.30;;;;;;4982903;28;20216;-83
2021/03/27 05:56:31;;;;;;;86.07;44.93;;;6.30;87.40;;;;;;4967587;28;20228;-82
2021/03/27 05:59:23;;;;;;;86.87;43.73;;;6.30;87.40;;;;;;4975769;28;20237;-83
2021/03/27 06:01:55;;;;;;;88.53;44.87;;;6.30;87.60;;;;;;4974534;28;20712;-83
2021/03/27 06:11:38;;;;;;;93.60;46.50;;;6.30;87.70;;;;;;5992416;23;20351;-84
2021/03/27 06:14:31;;;;;;;88.63;47.17;;;6.30;88.40;;;;;;4945464;29;20230;-85
2021/03/27 06:17:20;;;;;;;89.80;47.13;;;6.30;89.20;;;;;;4956676;28;20362;-83
2021/03/27 06:20:33;;;;;;;92.43;46.47;;;6.20;89.40;;;;;;4946436;29;21060;-83
2021/03/27 06:23:42;;;;;;;88.10;45.97;;;6.20;89.20;;;;;;4933725;29;20222;-83
2021/03/27 06:26:49;;;;;;;90.37;45.73;;;6.30;89.40;;;;;;4931618;29;20245;-83
2021/03/27 06:30:04;;;;;;;93.07;46.80;;;6.30;89.30;;;;;;4909625;28;20252;-83
2021/03/27 06:33:14;;;;;;;85.23;45.60;;;6.30;89.20;;;;;;4937017;28;20205;-83
2021/03/27 06:35:55;;;;;;;97.97;49.20;;;6.50;89.20;;;;;;4932891;28;20710;-82
2021/03/27 06:39:05;;;;;;;91.07;48.03;;;6.60;88.90;;;;;;4934696;28;20749;-84
2021/03/27 06:42:03;;;;;;;88.40;46.27;;;6.70;88.90;;;;;;4933434;28;20192;-82
2021/03/27 06:44:50;;;;;;;88.63;48.23;;;6.80;88.10;;;;;;4892313;29;20699;-85
2021/03/27 06:47:50;;;;;;;86.83;46.50;;;6.90;88.00;;;;;;4936870;28;20213;-83
2021/03/27 06:50:45;;;;;;;91.30;46.93;;;7.00;87.70;;;;;;4932251;29;20220;-82
2021/03/27 06:53:24;;;;;;;85.93;46.37;;;7.20;87.50;;;;;;4940366;28;20209;-81
2021/03/27 06:56:07;;;;;;;93.43;47.50;;;7.20;87.40;;;;;;4940926;29;20508;-82
2021/03/27 06:59:12;;;;;;;91.43;48.27;;;7.20;87.00;;;;;;4951433;29;20980;-85
2021/03/27 07:02:19;;;;;;;91.57;48.67;;;7.20;87.00;;;;;;4943314;29;20284;-84
2021/03/27 07:05:21;;;;;;;86.20;47.27;;;7.30;87.30;;;;;;4939004;28;20212;-83
2021/03/27 07:08:36;;;;;;;88.73;47.07;;;7.40;86.90;;;;;;4941896;28;20200;-81
2021/03/27 07:11:37;;;;;;;90.13;46.23;;;7.40;86.90;;;;;;4911303;29;20293;-83
2021/03/27 07:14:47;;;;;;;87.53;48.10;;;7.50;86.60;;;;;;4945430;28;20264;-81
2021/03/27 07:17:39;;;;;;;84.73;47.33;;;7.70;86.60;;;;;;4857545;29;20672;-82
2021/03/27 07:20:32;;;;;;;88.30;47.00;;;7.70;86.20;;;;;;4940391;28;20217;-82
2021/03/27 07:23:26;;;;;;;85.60;45.43;;;7.70;85.90;;;;;;4906580;29;20758;-82
2021/03/27 07:26:23;;;;;;;87.93;47.73;;;7.90;86.00;;;;;;4944416;28;20198;-83
2021/03/27 07:29:30;;;;;;;89.30;47.73;;;8.00;85.70;;;;;;4937040;28;20576;-85
2021/03/27 07:32:30;;;;;;;83.50;46.90;;;8.10;85.60;;;;;;4940080;28;20665;-82
2021/03/27 07:35:30;;;;;;;88.60;47.70;;;8.30;85.80;;;;;;4953863;28;20214;-80
2021/03/27 07:38:39;;;;;;;82.30;46.10;;;8.60;85.30;;;;;;4953379;28;20507;-84
2021/03/27 07:41:45;;;;;;;86.57;46.70;;;8.70;85.10;;;;;;4948871;28;20448;-81
2021/03/27 07:44:48;;;;;;;86.70;47.40;;;8.90;85.10;;;;;;4932377;29;20826;-84
2021/03/27 07:47:49;;;;;;;81.63;45.03;;;9.10;84.90;;;;;;4944174;28;20198;-84
2021/03/27 07:50:44;;;;;;;85.60;45.67;;;9.30;84.60;;;;;;4925257;29;20210;-82
2021/03/27 07:53:59;;;;;;;79.73;43.90;;;9.50;84.40;;;;;;4937876;28;21783;-83
2021/03/27 07:56:43;;;;;;;80.07;45.93;;;9.80;84.00;;;;;;4909730;29;20220;-82
2021/03/27 07:59:40;;;;;;;75.23;43.63;;;10.00;83.80;;;;;;4939636;28;20786;-84
2021/03/27 08:02:42;;;;;;;73.93;44.30;;;10.30;83.60;;;;;;4928056;29;20217;-83
2021/03/27 08:06:01;;;;;;;71.97;43.63;;;10.50;82.90;;;;;;4943899;28;20204;-84
2021/03/27 08:09:00;;;;;;;76.17;43.03;;;10.70;82.70;;;;;;4863187;29;20259;-83
2021/03/27 08:11:59;;;;;;;74.50;43.37;;;10.90;82.40;;;;;;4856291;29;20208;-83
2021/03/27 08:15:35;;;;;;;74.07;43.13;;;11.00;82.10;;;;;;4846358;29;20823;-84
2021/03/27 08:18:35;;;;;;;76.17;43.30;;;11.20;82.50;;;;;;4783986;29;20247;-83
2021/03/27 08:21:20;;;;;;;73.47;44.03;;;11.20;81.70;;;;;;4798807;29;20264;-83
2021/03/27 08:24:08;;;;;;;75.27;44.60;;;11.30;81.60;;;;;;4857290;29;20238;-83
2021/03/27 08:27:46;;;;;;;73.57;43.63;;;11.30;81.70;;;;;;4856916;29;20382;-82
2021/03/27 08:30:54;;;;;;;74.53;44.37;;;11.20;81.50;;;;;;4774957;29;20228;-82
2021/03/27 08:33:56;;;;;;;78.40;44.80;;;11.10;81.60;;;;;;4786585;29;20220;-83
2021/03/27 08:36:46;;;;;;;75.00;43.93;;;11.00;81.70;;;;;;4793642;29;20286;-83
2021/03/27 08:39:49;;;;;;;76.43;44.03;;;11.00;81.90;;;;;;4829529;29;20232;-82
2021/03/27 08:48:33;;;;;;;74.53;41.97;;;11.20;82.00;;;;;;4959422;28;20229;-83
2021/03/27 08:51:26;;;;;;;79.30;44.10;;;11.40;81.90;;;;;;5145503;23;20279;-86
2021/03/27 08:54:30;;;;;;;73.83;42.57;;;11.70;82.00;;;;;;4994501;28;20209;-84
2021/03/27 08:57:33;;;;;;;72.33;43.03;;;11.90;81.70;;;;;;4973349;28;20211;-86
2021/03/27 09:00:31;;;;;;;70.80;42.70;;;12.10;81.50;;;;;;4979751;28;20212;-85
2021/03/27 09:03:38;;;;;;;70.47;41.87;;;12.30;81.50;;;;;;4980134;28;20212;-82
2021/03/27 09:10:34;;;;;;;66.27;40.83;;;12.70;81.10;;;;;;4993886;28;20193;-82
2021/03/27 09:13:46;;;;;;;68.87;41.73;;;12.80;80.70;;;;;;4994018;28;20223;-86
2021/03/27 09:16:36;;;;;;;66.13;41.10;;;12.90;80.70;;;;;;4953956;28;20393;-82
2021/03/27 09:19:30;;;;;;;68.47;41.37;;;13.00;80.30;;;;;;4988442;28;20234;-84
2021/03/27 09:22:30;;;;;;;71.80;44.23;;;13.10;80.40;;;;;;4983309;28;20196;-83
2021/03/27 09:25:13;;;;;;;71.80;42.10;;;13.10;80.00;;;;;;4940908;28;20246;-83
2021/03/27 09:28:14;;;;;;;64.30;40.67;;;13.10;80.30;;;;;;4977131;28;20264;-85
2021/03/27 09:30:54;;;;;;;67.27;41.43;;;13.10;80.00;;;;;;4975103;28;20215;-83
2021/03/27 09:33:27;;;;;;;64.50;40.87;;;13.30;80.20;;;;;;4976060;28;20205;-84
2021/03/27 09:36:15;;;;;;;65.73;41.97;;;13.30;79.80;;;;;;4988617;28;20204;-83
2021/03/27 09:38:55;;;;;;;66.87;41.70;;;13.40;79.90;;;;;;4980112;28;20220;-85
2021/03/27 09:41:57;;;;;;;64.70;41.57;;;13.50;79.80;;;;;;4977749;28;20220;-84
2021/03/27 09:45:19;;;;;;;68.30;41.77;;;13.50;79.70;;;;;;4984188;28;20211;-83
2021/03/27 09:48:15;;;;;;;67.20;40.57;;;13.50;79.50;;;;;;4993923;28;20204;-84
2021/03/27 09:50:54;;;;;;;63.60;41.33;;;13.60;79.50;;;;;;4984869;28;20208;-83
2021/03/27 09:53:36;;;;;;;60.27;37.87;;;13.70;79.60;;;;;;4955987;28;20704;-84
2021/03/27 09:56:08;;;;;;;62.67;41.43;;;13.90;79.30;;;;;;4979553;28;20497;-83
2021/03/27 09:58:44;;;;;;;60.07;39.60;;;14.00;79.40;;;;;;4966277;28;20232;-85
2021/03/27 10:01:25;;;;;;;66.37;40.27;;;14.00;79.00;;;;;;4972604;28;20294;-84
2021/03/27 10:04:10;;;;;;;61.70;40.83;;;14.00;79.20;;;;;;4973334;28;20597;-85
2021/03/27 10:06:48;;;;;;;60.97;38.53;;;14.00;79.20;;;;;;4977530;28;20385;-85
2021/03/27 10:09:46;;;;;;;59.67;37.93;;;14.10;78.90;;;;;;4979184;28;20258;-85
2021/03/27 10:12:20;;;;;;;66.80;40.93;;;14.10;78.70;;;;;;4942555;28;20212;-84
2021/03/27 10:14:54;;;;;;;58.13;38.13;;;14.30;78.80;;;;;;4982687;28;20278;-84
2021/03/27 10:17:31;;;;;;;60.00;39.13;;;14.40;78.70;;;;;;4970013;28;20491;-84
2021/03/27 10:20:13;;;;;;;59.17;38.37;;;14.50;78.40;;;;;;4958947;28;20236;-83
2021/03/27 10:22:46;;;;;;;56.67;36.73;;;14.60;78.30;;;;;;4976466;28;20204;-85
2021/03/27 10:25:31;;;;;;;57.00;36.77;;;14.60;78.20;;;;;;4995480;28;20223;-85
2021/03/27 10:28:13;;;;;;;59.57;36.80;;;14.70;78.00;;;;;;4996186;28;20230;-83
2021/03/27 10:30:56;;;;;;;56.33;35.90;;;14.70;78.30;;;;;;5002290;23;20260;-83
2021/03/27 10:33:38;;;;;;;58.60;35.27;;;14.90;78.00;;;;;;4959841;28;20212;-85
2021/03/27 10:36:32;;;;;;;53.93;34.70;;;15.00;78.00;;;;;;4981967;28;20204;-84
2021/03/27 10:39:51;;;;;;;55.37;34.13;;;15.20;77.50;;;;;;4977514;28;20280;-83
2021/03/27 10:42:43;;;;;;;47.80;31.67;;;15.30;77.00;;;;;;4970004;28;20203;-85
2021/03/27 10:45:47;;;;;;;55.33;33.67;;;15.50;76.00;;;;;;4975303;28;20197;-83
2021/03/27 10:48:53;;;;;;;51.83;33.93;;;15.70;76.50;;;;;;4975612;28;20204;-84
2021/03/27 10:51:55;;;;;;;49.30;32.23;;;15.70;76.00;;;;;;4993907;28;20560;-85
2021/03/27 10:54:44;;;;;;;46.90;31.90;;;15.80;76.00;;;;;;4930917;28;20312;-85
2021/03/27 10:57:26;;;;;;;47.83;32.17;;;15.90;75.30;;;;;;4980798;28;20211;-85
2021/03/27 11:00:08;;;;;;;48.70;31.30;;;16.00;75.20;;;;;;4976908;28;20251;-84
2021/03/27 11:03:09;;;;;;;44.83;31.23;;;16.10;75.20;;;;;;4977898;28;20197;-84
2021/03/27 11:06:24;;;;;;;46.53;31.07;;;16.10;74.90;;;;;;4975938;28;20199;-85
2021/03/27 11:09:41;;;;;;;46.87;29.27;;;16.10;74.40;;;;;;4978991;28;20193;-84
2021/03/27 11:12:44;;;;;;;43.17;28.63;;;16.30;74.10;;;;;;4958222;28;20205;-84
2021/03/27 11:15:41;;;;;;;43.73;27.90;;;16.30;74.00;;;;;;4980057;28;20262;-84
2021/03/27 11:18:32;;;;;;;41.97;26.27;;;16.50;73.80;;;;;;4981461;28;20675;-85
2021/03/27 11:21:18;;;;;;;37.10;23.27;;;16.60;72.90;;;;;;4993906;28;20313;-84
2021/03/27 11:24:10;;;;;;;36.90;23.13;;;16.80;71.50;;;;;;4989844;28;20205;-84
2021/03/27 11:27:17;;;;;;;26.57;17.20;;;17.00;71.10;;;;;;4981101;28;20204;-84
2021/03/27 11:29:59;;;;;;;26.27;16.20;;;17.20;67.30;;;;;;4984240;28;20312;-86
2021/03/27 11:32:35;;;;;;;26.53;17.30;;;17.20;65.80;;;;;;4989436;28;20211;-85
2021/03/27 11:35:13;;;;;;;25.60;16.53;;;17.20;65.10;;;;;;4986416;28;20722;-85
2021/03/27 11:38:10;;;;;;;28.93;17.00;;;17.20;64.90;;;;;;4968663;28;20192;-84
2021/03/27 11:41:01;;;;;;;26.67;18.37;;;17.30;63.60;;;;;;4982991;28;20200;-86
2021/03/27 11:43:50;;;;;;;28.53;18.57;;;17.40;63.50;;;;;;4983877;28;20646;-83
2021/03/27 11:46:24;;;;;;;28.17;17.17;;;17.40;63.40;;;;;;4978595;28;20210;-87
2021/03/27 11:49:04;;;;;;;23.13;15.97;;;17.50;62.10;;;;;;4983557;28;20226;-84
2021/03/27 11:51:42;;;;;;;25.67;17.03;;;17.50;61.00;;;;;;4992806;28;20495;-86
2021/03/27 11:54:29;;;;;;;23.20;15.97;;;17.50;61.40;;;;;;4992724;28;20191;-86
2021/03/27 11:57:21;;;;;;;27.60;17.03;;;17.60;61.40;;;;;;4992965;28;20239;-84
2021/03/27 12:02:58;;;;;;;23.40;16.43;;;17.70;60.80;;;;;;4989447;28;20210;-84
2021/03/27 12:05:36;;;;;;;23.93;16.87;;;17.70;59.40;;;;;;4968515;28;20208;-85
2021/03/27 12:08:24;;;;;;;27.17;17.50;;;17.70;60.00;;;;;;4989397;28;20204;-84
2021/03/27 12:11:09;;;;;;;28.40;17.50;;;17.70;58.80;;;;;;4967888;28;20217;-87
2021/03/27 12:13:43;;;;;;;27.47;17.67;;;17.80;58.80;;;;;;4973322;28;20197;-84
2021/03/27 12:16:23;;;;;;;22.90;15.83;;;17.80;57.80;;;;;;4994306;28;20482;-84
2021/03/27 12:19:04;;;;;;;25.93;16.73;;;17.80;57.30;;;;;;4986245;28;20228;-83
2021/03/27 12:21:35;;;;;;;23.87;16.20;;;17.80;57.60;;;;;;4983489;28;20200;-84
2021/03/27 12:24:20;;;;;;;23.03;16.10;;;17.80;57.60;;;;;;4976516;28;20226;-84
2021/03/27 12:26:58;;;;;;;26.87;16.83;;;17.90;56.90;;;;;;4981864;28;20200;-82
2021/03/27 12:29:37;;;;;;;25.30;17.37;;;18.00;56.50;;;;;;4966627;28;20221;-82
2021/03/27 12:32:43;;;;;;;22.93;16.43;;;18.10;57.10;;;;;;4986309;28;20454;-85
2021/03/27 12:35:21;;;;;;;25.23;16.20;;;18.10;56.40;;;;;;4987182;28;20487;-83
2021/03/27 12:38:04;;;;;;;26.10;17.20;;;18.10;55.10;;;;;;4984529;28;20200;-85
2021/03/27 12:40:38;;;;;;;26.20;15.60;;;18.20;55.70;;;;;;4985183;28;20228;-84
2021/03/27 12:43:10;;;;;;;22.37;15.20;;;18.20;54.90;;;;;;4974843;28;20230;-84
2021/03/27 12:45:42;;;;;;;22.23;14.90;;;18.30;53.60;;;;;;4977778;28;20216;-84
2021/03/27 12:48:28;;;;;;;22.00;15.43;;;18.20;53.60;;;;;;4974089;28;20209;-85
2021/03/27 12:51:16;;;;;;;20.50;14.93;;;18.30;53.00;;;;;;4978587;28;20214;-85
2021/03/27 12:54:18;;;;;;;21.23;14.93;;;18.30;52.80;;;;;;4973146;28;20316;-83
2021/03/27 12:57:37;;;;;;;20.47;14.43;;;18.40;53.20;;;;;;4968464;28;20216;-85
2021/03/27 13:00:53;;;;;;;20.83;14.87;;;18.50;52.50;;;;;;4970395;28;20215;-84
2021/03/27 13:03:51;;;;;;;19.63;14.10;;;18.50;52.60;;;;;;4975154;28;20223;-86
2021/03/27 13:06:42;;;;;;;19.40;14.33;;;18.80;52.30;;;;;;4973808;28;20278;-83
2021/03/27 13:09:56;;;;;;;20.93;14.33;;;18.80;51.10;;;;;;4968457;28;20639;-83
2021/03/27 13:12:33;;;;;;;23.53;14.13;;;18.70;51.60;;;;;;4972420;28;20197;-86
2021/03/27 13:15:23;;;;;;;20.97;14.43;;;18.80;51.60;;;;;;4963997;28;20243;-86
2021/03/27 13:18:26;;;;;;;20.47;13.60;;;18.90;50.70;;;;;;5012322;23;20217;-84
2021/03/27 13:21:18;;;;;;;19.73;13.10;;;19.00;49.90;;;;;;4971710;28;20226;-84
2021/03/27 13:23:53;;;;;;;20.60;14.37;;;19.10;49.80;;;;;;4968962;28;20248;-86
2021/03/27 13:26:25;;;;;;;21.20;14.47;;;19.20;50.20;;;;;;4956810;28;20205;-85
2021/03/27 13:29:01;;;;;;;18.47;13.50;;;19.20;49.50;;;;;;4958988;28;20201;-82
2021/03/27 13:31:38;;;;;;;20.13;13.83;;;19.20;49.20;;;;;;4953516;28;20198;-83
2021/03/27 13:34:17;;;;;;;21.13;13.23;;;19.20;48.60;;;;;;4955314;28;20277;-86
2021/03/27 13:36:49;;;;;;;15.17;10.40;;;19.30;48.60;;;;;;4942456;28;20204;-84
2021/03/27 13:39:34;;;;;;;15.13;10.13;;;19.40;47.70;;;;;;4943441;28;20840;-82
2021/03/27 13:42:31;;;;;;;14.60;10.13;;;19.40;46.70;;;;;;4957279;28;20286;-85
2021/03/27 13:45:09;;;;;;;14.30;10.17;;;19.50;45.90;;;;;;4959234;28;20211;-84
2021/03/27 13:47:43;;;;;;;15.37;10.47;;;19.40;45.80;;;;;;4963714;28;20306;-85
2021/03/27 13:50:38;;;;;;;19.10;12.20;;;19.30;45.20;;;;;;4951591;28;20202;-86
2021/03/27 13:53:23;;;;;;;17.00;11.10;;;19.20;45.70;;;;;;4944257;28;20197;-85
2021/03/27 13:55:59;;;;;;;16.67;11.13;;;19.00;45.90;;;;;;4951803;28;20291;-82
2021/03/27 13:58:37;;;;;;;16.50;11.57;;;18.90;46.30;;;;;;4958479;28;20205;-83
2021/03/27 14:01:14;;;;;;;16.83;11.63;;;18.80;46.40;;;;;;4956958;28;20220;-84
2021/03/27 14:03:55;;;;;;;15.93;12.07;;;18.60;46.20;;;;;;4975324;28;20208;-84
2021/03/27 14:06:33;;;;;;;17.37;11.73;;;18.60;47.00;;;;;;4972929;28;20389;-87
2021/03/27 14:09:34;;;;;;;15.80;12.60;;;18.40;47.30;;;;;;4973082;28;20212;-85
2021/03/27 14:15:29;;;;;;;19.93;12.60;;;18.20;48.00;;;;;;4974027;28;20237;-83
2021/03/27 14:18:24;;;;;;;18.73;12.40;;;18.10;48.10;;;;;;4937378;28;20225;-84
2021/03/27 14:21:15;;;;;;;19.80;13.03;;;18.00;51.70;;;;;;4970570;28;20243;-83
2021/03/27 14:24:38;;;;;;;20.60;13.30;;;17.80;53.60;;;;;;4969842;28;20201;-84
2021/03/27 14:27:22;;;;;;;22.73;13.67;;;17.60;53.30;;;;;;4952808;28;20201;-83
2021/03/27 14:30:00;;;;;;;21.30;13.57;;;17.50;52.80;;;;;;4968230;28;20392;-84
2021/03/27 14:32:44;;;;;;;23.27;14.50;;;17.40;52.90;;;;;;4964247;28;20231;-84
2021/03/27 14:35:52;;;;;;;20.67;15.10;;;17.40;55.00;;;;;;4972030;28;20208;-85